Time;durP1;ratioP1;P1;durP2;ratioP2;P2;SDS_P1;SDS_P2;PMS_P1;PMS_P2;Temp;Humidity;BMP_temperature;BMP_pressure;BME280_temperature;BME280_humidity;BME280_pressure;Samples;Min_cycle;Max_cycle;Signal;HPM_P1;HPM_P2
2021/12/26 00:01:41;;;;;;;7.32;4.10;;;;;;;;;;5099021;28;20107;-84
2021/12/26 00:04:07;;;;;;;6.70;3.40;;;;;;;;;;5098899;28;20043;-84
2021/12/26 00:06:35;;;;;;;7.15;3.47;;;;;;;;;;5136414;27;20031;-82
2021/12/26 00:09:04;;;;;;;5.88;3.17;;;;;;;;;;5140830;27;20053;-82
2021/12/26 00:11:30;;;;;;;5.90;3.05;;;;;;;;;;5118084;28;20148;-84
2021/12/26 00:13:56;;;;;;;4.07;3.15;;;;;;;;;;5099810;28;20076;-83
2021/12/26 00:16:25;;;;;;;5.55;3.75;;;;;;;;;;5099208;28;20102;-83
2021/12/26 00:18:54;;;;;;;2.92;2.40;;;;;;;;;;5098935;28;20143;-84
2021/12/26 00:21:21;;;;;;;5.47;2.13;;;;;;;;;;5115519;28;20066;-83
2021/12/26 00:23:49;;;;;;;3.28;2.42;;;;;;;;;;5115605;28;20031;-84
2021/12/26 00:26:16;;;;;;;4.03;2.72;;;;;;;;;;5116421;28;20031;-84
2021/12/26 00:28:56;;;;;;;3.45;2.88;;;;;;;;;;5099989;28;20447;-84
2021/12/26 00:31:40;;;;;;;3.83;2.70;;;;;;;;;;5114555;28;20681;-85
2021/12/26 00:34:09;;;;;;;3.10;2.80;;;;;;;;;;5111460;28;20104;-85
2021/12/26 00:36:35;;;;;;;4.63;2.40;;;;;;;;;;5116551;28;20039;-85
2021/12/26 00:39:01;;;;;;;3.90;2.45;;;;;;;;;;5117752;28;20122;-82
2021/12/26 00:41:27;;;;;;;4.60;2.85;;;;;;;;;;5100381;28;20031;-82
2021/12/26 00:43:54;;;;;;;3.78;2.55;;;;;;;;;;5117326;28;20127;-84
2021/12/26 00:46:20;;;;;;;2.85;2.50;;;;;;;;;;5100248;28;20076;-84
2021/12/26 00:48:46;;;;;;;3.42;2.42;;;;;;;;;;5099968;28;20573;-84
2021/12/26 00:51:13;;;;;;;3.65;2.28;;;;;;;;;;5116875;28;20418;-83
2021/12/26 00:53:42;;;;;;;4.03;1.88;;;;;;;;;;5116512;28;20077;-84
2021/12/26 00:56:11;;;;;;;2.55;2.35;;;;;;;;;;5103386;27;20050;-85
2021/12/26 00:58:37;;;;;;;4.40;2.40;;;;;;;;;;5120831;27;20035;-84
2021/12/26 01:01:06;;;;;;;2.42;2.10;;;;;;;;;;5102852;27;20088;-85
2021/12/26 01:03:35;;;;;;;4.25;2.40;;;;;;;;;;5119338;27;20099;-84
2021/12/26 01:06:01;;;;;;;3.45;2.15;;;;;;;;;;5102543;27;20505;-84
2021/12/26 01:08:30;;;;;;;4.05;2.53;;;;;;;;;;5103076;27;20130;-86
2021/12/26 01:11:02;;;;;;;7.72;3.42;;;;;;;;;;5102854;27;20039;-84
2021/12/26 01:13:36;;;;;;;5.88;2.85;;;;;;;;;;5102287;27;20096;-85
2021/12/26 01:16:04;;;;;;;8.93;3.95;;;;;;;;;;5118862;27;20050;-85
2021/12/26 01:18:32;;;;;;;10.60;3.60;;;;;;;;;;5118625;27;20039;-84
2021/12/26 01:21:16;;;;;;;9.48;4.10;;;;;;;;;;5118484;27;20382;-84
2021/12/26 01:23:41;;;;;;;;;;;;;;;;;;5119704;27;20047;-83
2021/12/26 01:26:08;;;;;;;6.07;3.80;;;;;;;;;;5101831;27;19916;-84
2021/12/26 01:28:37;;;;;;;7.00;3.70;;;;;;;;;;5102827;27;20042;-85
2021/12/26 01:31:04;;;;;;;8.48;3.85;;;;;;;;;;5101917;27;20075;-84
2021/12/26 01:33:30;;;;;;;8.27;3.63;;;;;;;;;;5119013;27;20397;-83
2021/12/26 01:35:56;;;;;;;5.03;2.80;;;;;;;;;;5102205;27;20198;-83
2021/12/26 01:38:23;;;;;;;5.07;2.97;;;;;;;;;;5119356;27;20046;-84
2021/12/26 01:40:51;;;;;;;3.40;2.42;;;;;;;;;;5120041;27;20035;-84
2021/12/26 01:43:18;;;;;;;4.85;2.70;;;;;;;;;;5119539;27;20046;-84
2021/12/26 01:45:45;;;;;;;5.38;2.70;;;;;;;;;;5102385;27;20046;-84
2021/12/26 01:48:12;;;;;;;3.85;2.72;;;;;;;;;;5118964;27;20393;-84
2021/12/26 01:50:38;;;;;;;5.28;2.38;;;;;;;;;;5101793;27;20550;-83
2021/12/26 01:53:05;;;;;;;3.17;2.55;;;;;;;;;;5101463;27;20485;-84
2021/12/26 01:55:40;;;;;;;3.15;2.25;;;;;;;;;;5119458;27;20127;-84
2021/12/26 01:58:08;;;;;;;4.03;1.98;;;;;;;;;;5119081;27;20042;-83
2021/12/26 02:00:35;;;;;;;3.00;2.38;;;;;;;;;;5101620;27;20031;-86
2021/12/26 02:03:01;;;;;;;3.42;2.30;;;;;;;;;;5118401;27;20704;-83
2021/12/26 02:05:28;;;;;;;2.90;1.83;;;;;;;;;;5117328;27;20402;-83
2021/12/26 02:07:53;;;;;;;2.13;1.92;;;;;;;;;;5118520;27;20035;-83
2021/12/26 02:10:20;;;;;;;3.33;2.30;;;;;;;;;;5118752;27;20513;-85
2021/12/26 02:12:46;;;;;;;4.00;2.15;;;;;;;;;;5100899;27;20058;-83
2021/12/26 02:15:12;;;;;;;5.10;2.38;;;;;;;;;;5118712;27;20043;-84
2021/12/26 02:17:38;;;;;;;3.72;2.50;;;;;;;;;;5101128;27;20058;-84
2021/12/26 02:20:23;;;;;;;3.53;2.45;;;;;;;;;;5117395;27;20114;-84
2021/12/26 02:22:56;;;;;;;2.70;2.20;;;;;;;;;;5117823;27;20046;-83
2021/12/26 02:27:30;;;;;;;5.28;1.88;;;;;;;;;;5101196;27;20103;-84
2021/12/26 02:28:15;;;;;;;4.03;2.25;;;;;;;;;;5118062;27;20126;-83
2021/12/26 02:30:41;;;;;;;4.05;2.42;;;;;;;;;;5101533;27;20074;-84
2021/12/26 02:33:11;;;;;;;5.70;2.53;;;;;;;;;;5100819;27;20043;-84
2021/12/26 02:35:37;;;;;;;4.78;2.20;;;;;;;;;;5117641;27;20413;-84
2021/12/26 02:38:06;;;;;;;3.45;1.90;;;;;;;;;;5100623;27;20031;-84
2021/12/26 02:40:33;;;;;;;3.17;2.42;;;;;;;;;;5101089;27;20409;-83
2021/12/26 02:42:59;;;;;;;4.35;2.05;;;;;;;;;;5102572;27;20030;-83
2021/12/26 02:45:25;;;;;;;4.07;2.40;;;;;;;;;;5107543;27;20042;-83
2021/12/26 02:47:52;;;;;;;3.03;2.45;;;;;;;;;;5100701;27;20461;-84
2021/12/26 02:50:25;;;;;;;4.70;2.17;;;;;;;;;;5116876;27;20049;-84
2021/12/26 02:52:51;;;;;;;3.75;2.40;;;;;;;;;;5099743;27;20417;-83
2021/12/26 02:55:19;;;;;;;3.80;2.78;;;;;;;;;;5099315;27;20036;-83
2021/12/26 02:57:49;;;;;;;2.55;2.33;;;;;;;;;;5116877;27;20035;-83
2021/12/26 03:00:17;;;;;;;4.60;2.15;;;;;;;;;;5099366;27;20047;-84
2021/12/26 03:02:47;;;;;;;3.40;2.45;;;;;;;;;;5099294;27;20042;-83
2021/12/26 03:05:13;;;;;;;3.08;2.67;;;;;;;;;;5116354;27;20485;-85
2021/12/26 03:07:39;;;;;;;5.63;2.85;;;;;;;;;;5116106;27;20083;-83
2021/12/26 03:10:10;;;;;;;3.10;2.60;;;;;;;;;;5099291;27;20516;-83
2021/12/26 03:12:40;;;;;;;3.88;2.42;;;;;;;;;;5099478;27;20084;-85
2021/12/26 03:15:06;;;;;;;4.80;2.88;;;;;;;;;;5115815;27;20532;-85
2021/12/26 03:17:35;;;;;;;4.05;2.75;;;;;;;;;;5116221;27;20068;-83
2021/12/26 03:20:01;;;;;;;4.22;2.78;;;;;;;;;;5115621;27;20035;-83
2021/12/26 03:22:27;;;;;;;5.10;3.30;;;;;;;;;;5098558;27;20035;-83
2021/12/26 03:24:53;;;;;;;5.07;2.55;;;;;;;;;;5099786;27;20035;-83
2021/12/26 03:27:19;;;;;;;3.90;2.90;;;;;;;;;;5135695;27;20103;-81
2021/12/26 03:29:45;;;;;;;3.88;2.97;;;;;;;;;;5123860;27;20038;-82
2021/12/26 03:32:11;;;;;;;2.85;2.63;;;;;;;;;;5123754;27;20026;-83
2021/12/26 03:34:44;;;;;;;6.95;3.28;;;;;;;;;;5140596;28;20023;-82
2021/12/26 03:37:13;;;;;;;6.18;3.10;;;;;;;;;;5111134;27;20046;-83
2021/12/26 03:39:39;;;;;;;2.90;2.65;;;;;;;;;;5099892;27;20043;-84
2021/12/26 03:42:05;;;;;;;3.33;2.50;;;;;;;;;;5098773;27;20043;-84
2021/12/26 03:44:31;;;;;;;3.58;3.15;;;;;;;;;;5115443;28;20034;-83
2021/12/26 03:46:57;;;;;;;2.83;2.55;;;;;;;;;;5115847;28;20038;-83
2021/12/26 03:49:23;;;;;;;4.97;2.95;;;;;;;;;;5115185;28;20039;-83
2021/12/26 03:51:49;;;;;;;4.53;2.95;;;;;;;;;;5098258;28;20382;-84
2021/12/26 03:54:15;;;;;;;5.78;3.15;;;;;;;;;;5114970;28;20049;-84
2021/12/26 03:56:41;;;;;;;3.95;2.75;;;;;;;;;;5098285;28;20039;-83
2021/12/26 03:59:10;;;;;;;4.25;2.67;;;;;;;;;;5114668;28;20126;-85
2021/12/26 04:01:36;;;;;;;2.60;2.40;;;;;;;;;;5128938;28;20038;-85
2021/12/26 04:04:03;;;;;;;4.25;3.03;;;;;;;;;;5140322;27;20090;-82
2021/12/26 04:06:29;;;;;;;4.93;3.75;;;;;;;;;;5113057;28;20064;-84
2021/12/26 04:08:55;;;;;;;3.40;2.80;;;;;;;;;;5101037;28;20493;-83
2021/12/26 04:11:21;;;;;;;4.13;3.25;;;;;;;;;;5100399;28;20039;-83
2021/12/26 04:13:47;;;;;;;3.38;2.83;;;;;;;;;;5100254;28;20035;-83
2021/12/26 04:16:13;;;;;;;5.00;3.78;;;;;;;;;;5116670;28;20039;-83
2021/12/26 04:18:39;;;;;;;6.55;3.72;;;;;;;;;;5116616;28;20451;-85
2021/12/26 04:21:06;;;;;;;5.32;3.60;;;;;;;;;;5099743;28;20049;-83
2021/12/26 04:23:33;;;;;;;3.83;3.20;;;;;;;;;;5116912;28;20505;-83
2021/12/26 04:25:59;;;;;;;3.95;3.42;;;;;;;;;;5100172;28;20042;-83
2021/12/26 04:28:25;;;;;;;3.40;3.08;;;;;;;;;;5117278;28;20043;-83
2021/12/26 04:30:51;;;;;;;6.72;3.33;;;;;;;;;;5120268;27;20424;-83
2021/12/26 04:33:17;;;;;;;3.67;3.25;;;;;;;;;;5120086;27;20054;-83
2021/12/26 04:35:43;;;;;;;5.00;3.50;;;;;;;;;;5103475;27;20060;-83
2021/12/26 04:38:09;;;;;;;5.80;3.30;;;;;;;;;;5103009;27;20099;-83
2021/12/26 04:40:35;;;;;;;3.28;2.95;;;;;;;;;;5120997;27;20043;-83
2021/12/26 04:43:01;;;;;;;3.85;2.78;;;;;;;;;;5120621;27;20031;-83
2021/12/26 04:45:29;;;;;;;6.03;4.00;;;;;;;;;;5121229;27;20042;-83
2021/12/26 04:48:01;;;;;;;5.78;4.00;;;;;;;;;;5120301;27;20071;-81
2021/12/26 04:50:28;;;;;;;5.85;3.80;;;;;;;;;;5126120;27;20066;-81
2021/12/26 04:52:55;;;;;;;5.30;3.33;;;;;;;;;;5116571;27;20035;-84
2021/12/26 04:55:23;;;;;;;7.15;3.85;;;;;;;;;;5124539;27;20039;-83
2021/12/26 04:57:49;;;;;;;6.72;3.72;;;;;;;;;;5118629;27;20471;-83
2021/12/26 05:00:17;;;;;;;4.13;3.10;;;;;;;;;;5118765;27;20043;-84
2021/12/26 05:02:44;;;;;;;7.35;3.88;;;;;;;;;;5118905;27;20035;-83
2021/12/26 05:05:11;;;;;;;8.60;3.80;;;;;;;;;;5119540;27;20070;-83
2021/12/26 05:07:38;;;;;;;3.45;3.15;;;;;;;;;;5120311;27;20035;-82
2021/12/26 05:10:08;;;;;;;6.68;3.95;;;;;;;;;;5103124;27;20065;-82
2021/12/26 05:12:34;;;;;;;9.60;4.57;;;;;;;;;;5102756;27;20088;-83
2021/12/26 05:15:02;;;;;;;5.40;4.13;;;;;;;;;;5120073;27;20072;-82
2021/12/26 05:17:30;;;;;;;3.38;3.08;;;;;;;;;;5102698;27;20043;-82
2021/12/26 05:19:56;;;;;;;4.22;3.83;;;;;;;;;;5119777;27;20100;-82
2021/12/26 05:22:22;;;;;;;4.07;3.47;;;;;;;;;;5119534;27;20409;-84
2021/12/26 05:24:48;;;;;;;5.82;3.95;;;;;;;;;;5101234;27;20126;-82
2021/12/26 05:27:15;;;;;;;6.40;3.75;;;;;;;;;;5101865;27;20452;-83
2021/12/26 05:29:41;;;;;;;4.47;3.47;;;;;;;;;;5118579;27;20039;-83
2021/12/26 05:32:07;;;;;;;6.68;4.43;;;;;;;;;;5118884;27;20397;-83
2021/12/26 05:34:33;;;;;;;5.07;3.78;;;;;;;;;;5118503;27;20039;-82
2021/12/26 05:36:59;;;;;;;5.82;3.75;;;;;;;;;;5100856;27;20039;-83
2021/12/26 05:39:25;;;;;;;4.15;3.75;;;;;;;;;;5101669;27;20046;-83
2021/12/26 05:41:51;;;;;;;4.55;3.25;;;;;;;;;;5117333;27;20035;-84
2021/12/26 05:44:17;;;;;;;5.15;3.97;;;;;;;;;;5101237;27;20031;-83
2021/12/26 05:46:45;;;;;;;4.80;3.40;;;;;;;;;;5101260;27;20554;-84
2021/12/26 05:49:11;;;;;;;6.65;4.13;;;;;;;;;;5118367;27;20046;-84
2021/12/26 05:51:39;;;;;;;6.00;4.25;;;;;;;;;;5101553;27;20050;-84
2021/12/26 05:54:05;;;;;;;4.05;3.55;;;;;;;;;;5117927;27;20047;-83
2021/12/26 05:56:31;;;;;;;5.30;3.83;;;;;;;;;;5120946;27;20043;-83
2021/12/26 05:58:57;;;;;;;5.68;4.18;;;;;;;;;;5125564;27;20042;-82
2021/12/26 06:01:24;;;;;;;6.65;4.25;;;;;;;;;;5134047;27;20027;-82
2021/12/26 06:03:50;;;;;;;6.25;4.00;;;;;;;;;;5108291;27;20059;-83
2021/12/26 06:06:16;;;;;;;6.28;3.55;;;;;;;;;;5080006;28;20095;-83
2021/12/26 06:08:42;;;;;;;6.65;3.90;;;;;;;;;;5115286;27;20134;-83
2021/12/26 06:11:08;;;;;;;4.35;3.30;;;;;;;;;;5100955;27;20547;-83
2021/12/26 06:13:34;;;;;;;4.40;3.42;;;;;;;;;;5100937;27;20039;-83
2021/12/26 06:16:00;;;;;;;5.95;3.78;;;;;;;;;;5117423;27;20046;-83
2021/12/26 06:18:26;;;;;;;7.03;3.95;;;;;;;;;;5100423;27;20039;-83
2021/12/26 06:20:52;;;;;;;4.40;3.35;;;;;;;;;;5117566;27;20120;-83
2021/12/26 06:23:18;;;;;;;4.15;3.53;;;;;;;;;;5116968;27;20035;-83
2021/12/26 06:25:44;;;;;;;7.45;4.38;;;;;;;;;;5117409;27;20039;-84
2021/12/26 06:28:10;;;;;;;7.78;4.47;;;;;;;;;;5117587;27;20035;-83
2021/12/26 06:30:36;;;;;;;6.88;4.30;;;;;;;;;;5118085;27;20047;-83
2021/12/26 06:33:02;;;;;;;8.90;4.47;;;;;;;;;;5100481;27;20093;-83
2021/12/26 06:35:28;;;;;;;9.90;4.78;;;;;;;;;;5100517;27;20505;-83
2021/12/26 06:37:55;;;;;;;7.53;5.13;;;;;;;;;;5100197;27;20427;-84
2021/12/26 06:40:21;;;;;;;6.53;4.30;;;;;;;;;;5099769;27;20080;-83
2021/12/26 06:42:49;;;;;;;5.70;4.28;;;;;;;;;;5116842;27;20054;-84
2021/12/26 06:45:17;;;;;;;8.25;4.70;;;;;;;;;;5099149;27;20035;-84
2021/12/26 06:47:48;;;;;;;6.88;4.35;;;;;;;;;;5118152;27;20042;-84
2021/12/26 06:50:15;;;;;;;9.10;5.07;;;;;;;;;;5102880;27;20042;-83
2021/12/26 06:52:41;;;;;;;6.45;3.90;;;;;;;;;;5103008;27;20046;-84
2021/12/26 06:55:08;;;;;;;8.27;4.75;;;;;;;;;;5103463;27;20125;-83
2021/12/26 06:57:34;;;;;;;6.57;4.70;;;;;;;;;;5103172;27;20071;-83
2021/12/26 07:00:03;;;;;;;6.18;4.50;;;;;;;;;;5103945;27;20039;-83
2021/12/26 07:02:32;;;;;;;6.90;5.15;;;;;;;;;;5119971;27;20097;-83
2021/12/26 07:04:58;;;;;;;9.05;4.75;;;;;;;;;;5120203;27;20497;-84
2021/12/26 07:07:24;;;;;;;7.80;4.78;;;;;;;;;;5120925;27;20050;-84
2021/12/26 07:09:50;;;;;;;7.90;5.00;;;;;;;;;;5103537;27;20046;-83
2021/12/26 07:12:16;;;;;;;9.10;4.97;;;;;;;;;;5121131;27;20489;-83
2021/12/26 07:14:42;;;;;;;7.13;4.50;;;;;;;;;;5121546;27;20047;-83
2021/12/26 07:17:10;;;;;;;7.57;4.38;;;;;;;;;;5105910;28;20035;-83
2021/12/26 07:19:36;;;;;;;8.23;5.22;;;;;;;;;;5096007;28;20494;-83
2021/12/26 07:22:02;;;;;;;9.73;4.82;;;;;;;;;;5079906;28;20046;-84
2021/12/26 07:24:32;;;;;;;6.18;4.60;;;;;;;;;;5098310;28;20039;-84
2021/12/26 07:27:00;;;;;;;7.05;4.78;;;;;;;;;;5087308;28;20040;-83
2021/12/26 07:29:38;;;;;;;9.73;5.38;;;;;;;;;;5121604;28;20036;-83
2021/12/26 07:32:05;;;;;;;7.45;4.97;;;;;;;;;;5096284;28;20048;-84
2021/12/26 07:34:31;;;;;;;6.85;5.38;;;;;;;;;;5100072;28;20043;-84
2021/12/26 07:36:57;;;;;;;8.43;5.18;;;;;;;;;;5115692;28;20091;-84
2021/12/26 07:39:23;;;;;;;6.20;5.13;;;;;;;;;;5096840;28;20096;-84
2021/12/26 07:41:52;;;;;;;7.80;5.65;;;;;;;;;;5096428;28;20047;-84
2021/12/26 07:44:18;;;;;;;6.68;4.90;;;;;;;;;;5095899;28;20041;-84
2021/12/26 07:46:47;;;;;;;8.40;4.57;;;;;;;;;;5096114;28;20395;-84
2021/12/26 07:49:14;;;;;;;5.85;4.50;;;;;;;;;;5095586;28;20082;-84
2021/12/26 07:51:40;;;;;;;6.05;4.18;;;;;;;;;;5095203;28;20167;-84
2021/12/26 07:54:06;;;;;;;4.97;4.13;;;;;;;;;;5114018;28;20039;-84
2021/12/26 07:56:32;;;;;;;6.88;4.78;;;;;;;;;;5096829;28;20050;-83
2021/12/26 07:59:01;;;;;;;6.20;4.60;;;;;;;;;;5156912;27;20092;-84
2021/12/26 08:01:30;;;;;;;8.75;5.00;;;;;;;;;;5130200;28;20061;-83
2021/12/26 08:04:00;;;;;;;5.78;4.40;;;;;;;;;;5137562;27;20060;-85
2021/12/26 08:06:26;;;;;;;5.40;4.55;;;;;;;;;;5141576;27;20122;-85
2021/12/26 08:08:53;;;;;;;6.85;4.55;;;;;;;;;;5139673;27;20529;-85
2021/12/26 08:11:19;;;;;;;5.75;4.43;;;;;;;;;;5109117;28;20084;-84
2021/12/26 08:13:45;;;;;;;6.18;4.80;;;;;;;;;;5114633;27;20027;-84
2021/12/26 08:16:11;;;;;;;5.93;4.15;;;;;;;;;;5134272;27;20027;-83
2021/12/26 08:18:37;;;;;;;7.30;4.65;;;;;;;;;;5120330;27;20085;-85
2021/12/26 08:21:03;;;;;;;7.38;4.88;;;;;;;;;;5091577;28;20042;-84
2021/12/26 08:23:29;;;;;;;6.18;4.68;;;;;;;;;;5090235;27;20039;-84
2021/12/26 08:25:56;;;;;;;6.05;4.72;;;;;;;;;;5093072;27;20410;-84
2021/12/26 08:28:22;;;;;;;7.20;4.82;;;;;;;;;;5092519;27;20057;-85
2021/12/26 08:30:48;;;;;;;5.90;4.70;;;;;;;;;;5128288;27;20042;-84
2021/12/26 08:33:14;;;;;;;8.15;5.03;;;;;;;;;;5125839;27;20028;-85
2021/12/26 08:35:45;;;;;;;5.90;4.80;;;;;;;;;;5089136;27;20074;-83
2021/12/26 08:38:13;;;;;;;7.60;5.60;;;;;;;;;;5090983;27;20041;-84
2021/12/26 08:40:39;;;;;;;6.78;4.82;;;;;;;;;;5106653;27;20043;-83
2021/12/26 08:43:06;;;;;;;8.68;4.97;;;;;;;;;;5092882;27;20039;-84
2021/12/26 08:45:32;;;;;;;6.72;5.05;;;;;;;;;;5093923;27;20383;-84
2021/12/26 08:48:00;;;;;;;8.35;5.35;;;;;;;;;;5111801;27;20479;-84
2021/12/26 08:50:26;;;;;;;7.75;5.03;;;;;;;;;;5108253;27;20047;-83
2021/12/26 08:52:52;;;;;;;7.30;5.75;;;;;;;;;;5087531;27;20039;-84
2021/12/26 08:55:37;;;;;;;7.32;5.10;;;;;;;;;;5111532;27;20043;-85
2021/12/26 08:58:44;;;;;;;6.93;4.95;;;;;;;;;;5123004;27;20054;-85
2021/12/26 09:01:35;;;;;;;8.77;4.80;;;;;;;;;;5109433;27;20461;-84
2021/12/26 09:04:01;;;;;;;6.90;5.07;;;;;;;;;;5114339;27;20031;-85
2021/12/26 09:06:28;;;;;;;9.20;4.72;;;;;;;;;;5091645;27;20031;-83
2021/12/26 09:08:54;;;;;;;7.07;4.93;;;;;;;;;;5109129;27;20120;-83
2021/12/26 09:11:25;;;;;;;8.45;5.22;;;;;;;;;;5097061;27;20069;-85
2021/12/26 09:14:15;;;;;;;8.80;5.15;;;;;;;;;;5106916;27;20414;-86
2021/12/26 09:16:51;;;;;;;6.78;5.70;;;;;;;;;;5114108;27;20502;-84
2021/12/26 09:19:17;;;;;;;8.48;5.03;;;;;;;;;;5109842;27;20056;-85
2021/12/26 09:21:45;;;;;;;7.40;5.57;;;;;;;;;;5090759;28;20036;-85
2021/12/26 09:24:15;;;;;;;6.03;5.15;;;;;;;;;;5087308;27;20035;-85
2021/12/26 09:26:41;;;;;;;5.25;4.60;;;;;;;;;;5085408;27;20048;-86
2021/12/26 09:29:13;;;;;;;6.30;5.38;;;;;;;;;;5086866;27;20099;-85
2021/12/26 09:32:22;;;;;;;7.68;5.53;;;;;;;;;;5072935;28;20125;-85
2021/12/26 09:38:23;;;;;;;6.60;4.88;;;;;;;;;;5106430;27;20116;-84
2021/12/26 09:41:01;;;;;;;9.40;5.90;;;;;;;;;;5115810;27;20042;-84
2021/12/26 09:50:18;;;;;;;8.40;5.10;;;;;;;;;;5123212;27;20115;-83
2021/12/26 09:52:46;;;;;;;5.82;5.05;;;;;;;;;;5092670;27;20054;-85
2021/12/26 09:55:12;;;;;;;6.70;4.97;;;;;;;;;;5107689;27;20035;-83
2021/12/26 09:58:14;;;;;;;6.18;4.60;;;;;;;;;;5084699;27;20038;-85
2021/12/26 10:00:52;;;;;;;7.10;5.20;;;;;;;;;;5094147;27;20043;-84
2021/12/26 10:03:22;;;;;;;6.40;5.00;;;;;;;;;;5088701;27;20028;-84
2021/12/26 10:12:41;;;;;;;6.28;5.07;;;;;;;;;;5120582;27;20043;-85
2021/12/26 10:15:09;;;;;;;7.00;5.13;;;;;;;;;;5123987;27;20028;-86
2021/12/26 10:17:47;;;;;;;6.22;4.82;;;;;;;;;;5101033;27;20039;-88
2021/12/26 10:20:52;;;;;;;7.55;5.35;;;;;;;;;;5103979;28;20479;-85
2021/12/26 10:23:25;;;;;;;;;;;;;;;;;;5093175;28;20414;-87
2021/12/26 10:50:58;;;;;;;8.23;5.95;;;;;;;;;;5114515;27;20113;-84
2021/12/26 11:07:57;;;;;;;7.10;5.95;;;;;;;;;;5095787;28;20058;-86
2021/12/26 11:13:32;;;;;;;6.60;5.50;;;;;;;;;;5112993;28;19980;-87
2021/12/26 11:36:38;;;;;;;6.03;5.32;;;;;;;;;;5118160;27;20069;-87
2021/12/26 11:42:55;;;;;;;6.85;5.22;;;;;;;;;;5115642;27;20058;-86
2021/12/26 12:03:15;;;;;;;6.90;5.28;;;;;;;;;;5028801;28;20279;-88
2021/12/26 12:06:44;;;;;;;6.43;5.82;;;;;;;;;;4989757;28;20045;-88
2021/12/26 12:10:16;;;;;;;7.97;6.10;;;;;;;;;;4942056;28;20085;-86
2021/12/26 12:20:26;;;;;;;6.55;5.47;;;;;;;;;;4937759;29;20150;-86
2021/12/26 12:30:15;;;;;;;7.35;5.25;;;;;;;;;;4933688;29;20104;-87
2021/12/26 12:33:18;;;;;;;8.90;6.10;;;;;;;;;;4919358;29;20055;-85
2021/12/26 12:35:55;;;;;;;8.05;6.15;;;;;;;;;;4924277;28;20051;-84
2021/12/26 12:38:44;;;;;;;7.07;5.68;;;;;;;;;;4987257;28;20588;-84
2021/12/26 12:41:35;;;;;;;7.63;6.00;;;;;;;;;;5105364;28;20040;-85
2021/12/26 12:44:11;;;;;;;7.85;6.70;;;;;;;;;;5110230;28;20118;-85
2021/12/26 12:50:32;;;;;;;8.05;6.57;;;;;;;;;;5112902;28;20080;-85
2021/12/26 12:53:54;;;;;;;8.02;6.38;;;;;;;;;;5047403;28;20520;-84
2021/12/26 12:56:33;;;;;;;7.53;6.22;;;;;;;;;;5033991;28;20377;-84
2021/12/26 12:59:48;;;;;;;7.70;5.97;;;;;;;;;;5097507;28;20077;-85
2021/12/26 13:02:30;;;;;;;7.45;6.30;;;;;;;;;;5104592;28;20047;-84
2021/12/26 13:04:56;;;;;;;8.23;6.15;;;;;;;;;;5094076;28;20042;-85
2021/12/26 13:07:54;;;;;;;7.60;6.50;;;;;;;;;;5083260;28;20039;-86
2021/12/26 13:20:32;;;;;;;7.75;6.88;;;;;;;;;;5133019;27;20091;-87
2021/12/26 13:23:08;;;;;;;8.52;6.90;;;;;;;;;;5101173;28;20040;-87
2021/12/26 13:25:34;;;;;;;11.30;6.30;;;;;;;;;;5083176;28;20039;-85
2021/12/26 13:28:02;;;;;;;7.82;5.95;;;;;;;;;;5110166;27;20082;-83
2021/12/26 13:30:29;;;;;;;9.15;6.68;;;;;;;;;;5131016;27;20092;-83
2021/12/26 13:32:55;;;;;;;8.55;6.63;;;;;;;;;;5118767;28;20060;-84
2021/12/26 13:35:35;;;;;;;7.80;5.82;;;;;;;;;;5093018;28;20036;-84
2021/12/26 13:38:02;;;;;;;9.65;6.53;;;;;;;;;;5097641;28;20506;-85
2021/12/26 13:40:35;;;;;;;6.82;5.97;;;;;;;;;;5090351;27;20083;-86
2021/12/26 13:43:08;;;;;;;8.27;6.57;;;;;;;;;;5095341;27;20027;-85
2021/12/26 13:45:37;;;;;;;7.78;6.57;;;;;;;;;;5084787;28;20051;-84
2021/12/26 13:48:04;;;;;;;7.88;6.03;;;;;;;;;;5102334;28;20114;-84
2021/12/26 13:50:30;;;;;;;7.30;6.32;;;;;;;;;;5111235;27;20482;-85
2021/12/26 13:53:01;;;;;;;7.13;6.40;;;;;;;;;;5088231;28;20407;-85
2021/12/26 13:55:27;;;;;;;6.97;6.28;;;;;;;;;;5085409;28;20435;-85
2021/12/26 13:57:57;;;;;;;6.90;6.05;;;;;;;;;;5086642;28;20078;-85
2021/12/26 14:00:23;;;;;;;8.73;6.63;;;;;;;;;;5098254;27;20394;-86
2021/12/26 14:02:52;;;;;;;7.90;6.22;;;;;;;;;;5102081;28;20466;-84
2021/12/26 14:05:30;;;;;;;7.80;6.00;;;;;;;;;;5079904;28;20051;-84
2021/12/26 14:08:01;;;;;;;7.80;6.28;;;;;;;;;;5097549;28;20547;-84
2021/12/26 14:10:27;;;;;;;8.13;5.93;;;;;;;;;;5098049;28;20051;-83
2021/12/26 14:13:00;;;;;;;6.88;5.55;;;;;;;;;;5122434;27;20118;-86
2021/12/26 14:15:33;;;;;;;7.10;5.53;;;;;;;;;;5084375;27;20495;-86
2021/12/26 14:18:07;;;;;;;8.07;6.10;;;;;;;;;;5092747;28;20028;-81
2021/12/26 14:23:48;;;;;;;9.13;6.28;;;;;;;;;;5112647;28;20127;-84
2021/12/26 14:26:45;;;;;;;8.10;6.05;;;;;;;;;;5106685;27;20110;-88
2021/12/26 14:29:26;;;;;;;7.10;5.90;;;;;;;;;;5110186;27;20080;-87
2021/12/26 14:38:35;;;;;;;8.63;6.15;;;;;;;;;;5051033;28;20055;-85
2021/12/26 14:41:06;;;;;;;8.82;6.45;;;;;;;;;;5100176;28;20032;-85
2021/12/26 14:43:40;;;;;;;7.65;6.28;;;;;;;;;;5105759;27;20466;-86
2021/12/26 14:46:09;;;;;;;9.07;6.45;;;;;;;;;;5116565;27;20120;-87
2021/12/26 14:48:39;;;;;;;10.38;6.88;;;;;;;;;;5118257;27;20044;-85
2021/12/26 14:51:13;;;;;;;7.90;6.32;;;;;;;;;;5085083;28;20402;-87
2021/12/26 14:53:39;;;;;;;7.07;6.30;;;;;;;;;;5088408;27;20039;-86
2021/12/26 14:56:10;;;;;;;8.75;6.32;;;;;;;;;;5099520;27;20089;-85
2021/12/26 14:58:47;;;;;;;8.65;6.68;;;;;;;;;;5088459;27;20039;-85
2021/12/26 15:01:23;;;;;;;7.65;5.97;;;;;;;;;;5098759;27;20085;-85
2021/12/26 15:03:50;;;;;;;8.27;6.30;;;;;;;;;;5106156;27;20070;-86
2021/12/26 15:06:19;;;;;;;7.40;6.68;;;;;;;;;;5100426;28;20056;-86
2021/12/26 15:08:45;;;;;;;7.38;6.25;;;;;;;;;;5104587;28;20141;-84
2021/12/26 15:11:11;;;;;;;7.70;6.10;;;;;;;;;;5135421;27;20398;-86
2021/12/26 15:13:38;;;;;;;9.63;6.93;;;;;;;;;;5130160;27;20035;-86
2021/12/26 15:16:08;;;;;;;10.57;7.32;;;;;;;;;;5099810;28;20054;-86
2021/12/26 15:21:55;;;;;;;;;;;;;;;;;;;;;
2021/12/26 15:27:28;;;;;;;9.93;6.70;;;;;;;;;;5103367;22;20071;-37
2021/12/26 15:29:58;;;;;;;9.02;6.60;;;;;;;;;;5089922;28;20052;-33
2021/12/26 15:32:25;;;;;;;9.82;7.00;;;;;;;;;;5109314;28;20039;-29
2021/12/26 15:34:51;;;;;;;8.77;6.47;;;;;;;;;;5107931;28;20496;-31
2021/12/26 15:37:20;;;;;;;10.07;7.20;;;;;;;;;;5108109;28;20043;-34
2021/12/26 15:39:46;;;;;;;9.45;7.18;;;;;;;;;;5094258;28;20063;-33
2021/12/26 15:42:12;;;;;;;9.90;7.30;;;;;;;;;;5091313;28;20063;-31
2021/12/26 15:44:38;;;;;;;8.23;6.82;;;;;;;;;;5090731;28;20439;-30
2021/12/26 15:47:05;;;;;;;9.23;6.93;;;;;;;;;;5090617;28;20385;-28
2021/12/26 15:49:32;;;;;;;9.88;6.88;;;;;;;;;;5089608;28;20052;-31
2021/12/26 15:51:59;;;;;;;9.52;6.75;;;;;;;;;;5089780;28;20031;-30
2021/12/26 15:54:26;;;;;;;12.27;7.50;;;;;;;;;;5099979;28;20114;-32
2021/12/26 15:56:53;;;;;;;8.27;6.57;;;;;;;;;;5102678;28;21067;-30
2021/12/26 15:59:19;;;;;;;11.95;7.00;;;;;;;;;;5098518;28;20126;-30
2021/12/26 16:01:45;;;;;;;9.55;6.78;;;;;;;;;;5090573;28;20067;-30
2021/12/26 16:04:15;;;;;;;9.40;7.10;;;;;;;;;;5091425;28;20113;-29
2021/12/26 16:06:44;;;;;;;9.85;7.88;;;;;;;;;;5097430;28;20538;-31
2021/12/26 16:09:10;;;;;;;10.38;7.60;;;;;;;;;;5095323;28;20134;-35
2021/12/26 16:11:38;;;;;;;13.25;7.60;;;;;;;;;;5091460;28;20040;-32
2021/12/26 16:14:04;;;;;;;9.07;6.88;;;;;;;;;;5092224;28;20040;-32
2021/12/26 16:16:30;;;;;;;11.40;7.05;;;;;;;;;;5089834;28;20080;-32
2021/12/26 16:18:56;;;;;;;10.98;7.25;;;;;;;;;;5088339;28;20401;-34
2021/12/26 16:21:23;;;;;;;9.77;7.80;;;;;;;;;;5090376;28;20116;-30
2021/12/26 16:23:49;;;;;;;10.50;6.90;;;;;;;;;;5090905;28;20037;-30
2021/12/26 16:26:15;;;;;;;9.10;6.85;;;;;;;;;;5092352;28;20071;-30
2021/12/26 16:28:41;;;;;;;10.57;7.25;;;;;;;;;;5094306;28;20062;-32
2021/12/26 16:31:08;;;;;;;11.63;7.50;;;;;;;;;;5094062;28;20041;-31
2021/12/26 16:33:34;;;;;;;10.30;7.22;;;;;;;;;;5093573;28;20047;-30
2021/12/26 16:36:01;;;;;;;8.77;7.28;;;;;;;;;;5091960;28;20036;-30
2021/12/26 16:38:27;;;;;;;11.63;7.47;;;;;;;;;;5092678;28;20044;-29
2021/12/26 16:40:53;;;;;;;10.40;7.60;;;;;;;;;;5093778;28;20039;-27
2021/12/26 16:43:20;;;;;;;11.55;8.07;;;;;;;;;;5093235;28;20040;-30
2021/12/26 16:45:47;;;;;;;9.52;7.25;;;;;;;;;;5092956;28;20378;-29
2021/12/26 16:48:14;;;;;;;11.93;8.13;;;;;;;;;;5093606;28;20089;-30
2021/12/26 16:50:40;;;;;;;10.93;7.75;;;;;;;;;;5093371;28;20122;-30
2021/12/26 16:53:07;;;;;;;10.50;7.30;;;;;;;;;;5093905;28;20400;-29
2021/12/26 16:55:40;;;;;;;11.15;7.15;;;;;;;;;;5093428;28;20081;-29
2021/12/26 16:58:08;;;;;;;9.88;7.90;;;;;;;;;;5092878;28;20580;-28
2021/12/26 17:00:35;;;;;;;11.35;7.75;;;;;;;;;;5091261;28;20138;-30
2021/12/26 17:03:05;;;;;;;10.35;7.78;;;;;;;;;;5092312;28;20052;-29
2021/12/26 17:05:38;;;;;;;13.10;8.67;;;;;;;;;;5092481;28;20044;-31
2021/12/26 17:08:05;;;;;;;10.30;7.80;;;;;;;;;;5090001;28;20032;-30
2021/12/26 17:10:32;;;;;;;11.63;8.60;;;;;;;;;;5096323;28;20705;-28
2021/12/26 17:12:58;;;;;;;10.98;7.75;;;;;;;;;;5093029;28;20032;-28
2021/12/26 17:15:24;;;;;;;11.90;8.43;;;;;;;;;;5077491;28;20077;-33
2021/12/26 17:17:50;;;;;;;11.48;7.90;;;;;;;;;;5091142;28;20043;-31
2021/12/26 17:20:19;;;;;;;9.80;7.63;;;;;;;;;;5089182;28;20576;-32
2021/12/26 17:22:48;;;;;;;12.13;8.63;;;;;;;;;;5099577;28;20044;-32
2021/12/26 17:25:17;;;;;;;12.77;9.02;;;;;;;;;;5095868;28;20128;-33